createdAt,value
2023-05-01T00:26:57.675Z,76.06
2023-05-01T00:29:24.751Z,76.29
2023-05-01T00:31:51.871Z,76.47
2023-05-01T00:34:19.594Z,76.64
2023-05-01T00:36:48.111Z,76.85
2023-05-01T00:39:16.529Z,77.11
2023-05-01T00:41:43.294Z,77.00
2023-05-01T00:44:10.246Z,76.77
2023-05-01T00:46:37.629Z,76.78
2023-05-01T00:49:04.412Z,76.96
2023-05-01T00:51:31.438Z,77.02
2023-05-01T00:53:59.769Z,76.83
2023-05-01T00:56:27.440Z,76.52
2023-05-01T00:58:54.714Z,76.33
2023-05-01T01:01:21.499Z,76.36
2023-05-01T01:18:39.744Z,75.97
2023-05-01T01:21:19.878Z,76.02
2023-05-01T01:24:19.119Z,76.31
2023-05-01T01:27:10.717Z,76.26
2023-05-01T01:29:41.106Z,76.87
2023-05-01T01:32:27.008Z,77.16
2023-05-01T01:35:03.017Z,77.34
2023-05-01T01:37:43.167Z,77.91
2023-05-01T01:40:29.238Z,78.43
2023-05-01T01:43:04.883Z,78.39
2023-05-01T01:45:40.577Z,78.18
2023-05-01T01:48:12.747Z,78.17
2023-05-01T01:50:41.732Z,78.04
2023-05-01T01:53:11.183Z,77.89
2023-05-01T01:55:40.958Z,77.76
2023-05-01T01:58:09.973Z,77.30
2023-05-01T02:00:38.580Z,77.39
2023-05-01T02:03:06.028Z,77.29
2023-05-01T02:05:35.406Z,77.46
2023-05-01T02:08:03.564Z,77.63
2023-05-01T02:10:32.155Z,77.88
2023-05-01T02:13:01.308Z,78.06
2023-05-01T02:15:29.837Z,78.32
2023-05-01T02:17:58.796Z,78.55
2023-05-01T02:20:26.219Z,78.69
2023-05-01T02:23:43.874Z,78.68
2023-05-01T02:26:16.702Z,78.57
2023-05-01T02:28:43.706Z,78.55
2023-05-01T02:31:10.912Z,78.43
2023-05-01T02:38:20.837Z,78.69
2023-05-01T02:40:51.790Z,79.01
2023-05-01T02:43:22.274Z,78.96
2023-05-01T02:45:51.969Z,78.89
2023-05-01T02:48:25.004Z,78.73
2023-05-01T02:50:53.334Z,78.47
2023-05-01T02:53:21.832Z,78.32
2023-05-01T02:55:51.019Z,78.26
2023-05-01T02:58:19.133Z,78.23
2023-05-01T03:00:48.896Z,78.25
2023-05-01T03:03:16.110Z,78.24
2023-05-01T03:05:43.009Z,78.17
2023-05-01T03:08:11.182Z,78.48
2023-05-01T03:10:43.778Z,78.89
2023-05-01T03:13:11.389Z,79.20
2023-05-01T03:15:39.182Z,79.37
